Time;durP1;ratioP1;P1;durP2;ratioP2;P2;SDS_P1;SDS_P2;PMS_P1;PMS_P2;Temp;Humidity;BMP_temperature;BMP_pressure;BME280_temperature;BME280_humidity;BME280_pressure;Samples;Min_cycle;Max_cycle;Signal;HPM_P1;HPM_P2
2021/12/24 00:00:50;;;;;;;57.70;25.30;;;;;;;1.74;100.00;101118.28;4992539;28;20057;-80
2021/12/24 00:03:20;;;;;;;65.60;27.73;;;;;;;1.79;100.00;101106.84;4994491;28;20050;-80
2021/12/24 00:05:48;;;;;;;54.55;25.40;;;;;;;1.73;100.00;101122.84;4993613;28;20043;-80
2021/12/24 00:08:16;;;;;;;51.70;27.38;;;;;;;1.67;100.00;101107.47;4993728;28;20035;-80
2021/12/24 00:10:48;;;;;;;53.40;27.80;;;;;;;1.82;100.00;101104.59;4985217;28;20043;-80
2021/12/24 00:13:17;;;;;;;53.83;26.60;;;;;;;1.84;100.00;101118.69;4985296;28;20065;-81
2021/12/24 00:37:00;;;;;;;63.58;27.20;;;;;;;1.81;100.00;101088.59;4987488;28;20414;-81
2021/12/24 00:39:28;;;;;;;63.20;27.98;;;;;;;1.90;100.00;101087.31;4984313;28;20058;-81
2021/12/24 00:41:55;;;;;;;62.25;28.00;;;;;;;1.92;100.00;101081.72;4993889;28;20061;-81
2021/12/24 00:44:23;;;;;;;60.80;27.70;;;;;;;2.04;100.00;101082.75;4994031;28;20065;-81
2021/12/24 00:46:54;;;;;;;54.35;25.23;;;;;;;2.01;100.00;101080.47;4994077;28;20055;-80
2021/12/24 00:49:22;;;;;;;55.47;25.65;;;;;;;2.30;100.00;101085.59;4993595;28;20049;-81
2021/12/24 00:52:07;;;;;;;57.70;25.13;;;;;;;2.21;100.00;101074.19;4993668;28;20478;-81
2021/12/24 00:57:22;;;;;;;57.35;26.48;;;;;;;2.14;100.00;101069.66;4994061;28;20053;-81
2021/12/24 00:59:50;;;;;;;54.90;24.65;;;;;;;2.17;100.00;101073.78;4992156;28;20408;-81
2021/12/24 01:02:18;;;;;;;55.05;25.25;;;;;;;1.90;100.00;101081.94;4994168;28;20050;-81
2021/12/24 01:04:46;;;;;;;61.10;25.65;;;;;;;1.85;100.00;101079.88;4996235;28;20054;-81
2021/12/24 01:07:15;;;;;;;55.47;25.65;;;;;;;1.86;100.00;101088.81;4980643;28;20401;-80
2021/12/24 01:09:43;;;;;;;58.08;26.58;;;;;;;1.91;100.00;101063.88;4994569;28;20046;-81
2021/12/24 01:12:11;;;;;;;59.72;26.70;;;;;;;1.92;100.00;101069.06;4994534;28;20050;-80
2021/12/24 01:14:39;;;;;;;52.28;26.10;;;;;;;1.89;100.00;101077.56;4989087;28;20063;-81
2021/12/24 01:17:20;;;;;;;63.40;27.40;;;;;;;1.84;100.00;101075.50;4990246;28;20522;-80
2021/12/24 01:19:50;;;;;;;57.08;27.50;;;;;;;1.86;100.00;101073.44;4990019;28;20493;-80
2021/12/24 01:25:36;;;;;;;48.28;24.35;;;;;;;1.80;100.00;101092.34;4955196;28;20042;-80
2021/12/24 01:44:55;;;;;;;51.95;26.55;;;;;;;1.83;100.00;101057.66;4995807;28;20057;-82
2021/12/24 01:47:23;;;;;;;51.90;25.35;;;;;;;1.81;100.00;101064.31;4991385;28;20401;-79
2021/12/24 01:49:51;;;;;;;54.15;26.75;;;;;;;1.81;100.00;101053.50;4979251;28;20057;-79
2021/12/24 01:52:20;;;;;;;61.78;27.02;;;;;;;1.97;100.00;101057.63;4982959;28;20059;-79
2021/12/24 01:54:53;;;;;;;;;;;;;;;2.20;100.00;101057.16;4995804;28;20057;-80
2021/12/24 01:57:21;;;;;;;50.15;24.90;;;;;;;1.99;100.00;101047.44;4994257;28;19929;-79
2021/12/24 01:59:50;;;;;;;50.53;26.13;;;;;;;1.97;100.00;101044.97;4994212;28;20050;-80
2021/12/24 02:02:18;;;;;;;59.47;27.60;;;;;;;2.08;100.00;101045.34;4992965;28;20046;-80
2021/12/24 02:04:47;;;;;;;52.85;27.00;;;;;;;2.00;100.00;101041.84;4993294;28;20054;-79
2021/12/24 02:07:15;;;;;;;55.25;24.77;;;;;;;1.92;100.00;101041.25;4993496;28;20042;-79
2021/12/24 02:09:42;;;;;;;53.40;26.20;;;;;;;2.02;100.00;101049.75;4982570;28;20047;-79
2021/12/24 02:12:11;;;;;;;58.00;27.33;;;;;;;2.04;100.00;101044.94;4993304;28;20053;-79
2021/12/24 02:14:40;;;;;;;57.42;26.42;;;;;;;1.98;100.00;101049.34;4990750;28;20054;-79
2021/12/24 02:28:26;;;;;;;51.15;26.10;;;;;;;2.03;100.00;101016.28;4980396;28;20405;-80
2021/12/24 02:30:54;;;;;;;59.00;26.60;;;;;;;1.99;100.00;101007.78;4991763;28;20051;-80
2021/12/24 02:33:22;;;;;;;62.70;26.58;;;;;;;1.85;100.00;101011.53;4992688;28;20045;-80
2021/12/24 02:35:50;;;;;;;59.13;25.75;;;;;;;1.77;100.00;101007.22;4992494;28;20050;-80
2021/12/24 02:38:19;;;;;;;54.13;27.02;;;;;;;2.12;100.00;101004.22;4993236;28;20386;-80
2021/12/24 02:40:47;;;;;;;61.38;27.10;;;;;;;2.25;100.00;101006.03;4988727;28;20049;-80
2021/12/24 02:43:19;;;;;;;57.97;26.20;;;;;;;2.12;100.00;101012.34;4992127;28;20065;-80
2021/12/24 02:45:51;;;;;;;55.95;25.35;;;;;;;1.91;100.00;101009.88;4976426;28;20058;-78
2021/12/24 02:53:58;;;;;;;60.65;26.90;;;;;;;1.95;100.00;100987.66;4993431;28;20042;-80
2021/12/24 02:56:30;;;;;;;57.95;25.38;;;;;;;1.95;100.00;100973.34;4982410;28;20054;-79
2021/12/24 02:59:02;;;;;;;57.47;26.42;;;;;;;2.04;100.00;100968.53;5007974;28;20066;-80
2021/12/24 03:01:35;;;;;;;53.17;24.40;;;;;;;1.96;100.00;100966.91;4999353;28;20057;-80
2021/12/24 03:04:04;;;;;;;56.67;27.38;;;;;;;1.90;100.00;100959.66;4993071;28;20062;-80
2021/12/24 03:06:37;;;;;;;51.40;24.95;;;;;;;1.83;100.00;100944.31;4992214;28;20050;-80
2021/12/24 03:09:07;;;;;;;54.60;26.50;;;;;;;1.84;100.00;100950.53;4991431;28;20057;-80
2021/12/24 03:11:36;;;;;;;59.92;26.90;;;;;;;1.74;100.00;100956.38;4991899;28;20382;-80
2021/12/24 03:14:06;;;;;;;53.60;25.95;;;;;;;1.72;100.00;100966.53;4991633;28;20054;-80
2021/12/24 03:16:37;;;;;;;56.13;27.13;;;;;;;1.69;100.00;100964.25;4990562;28;20110;-79
2021/12/24 03:19:07;;;;;;;53.75;25.23;;;;;;;1.71;100.00;100967.59;4971557;28;20058;-80
2021/12/24 03:21:51;;;;;;;58.00;26.77;;;;;;;1.72;100.00;100959.25;4992532;28;20043;-80
2021/12/24 03:26:47;;;;;;;52.78;25.35;;;;;;;1.71;100.00;100937.91;4988553;28;20484;-79
2021/12/24 03:29:17;;;;;;;53.90;27.60;;;;;;;1.79;100.00;100947.63;4991076;28;20050;-79
2021/12/24 03:31:47;;;;;;;52.60;24.92;;;;;;;1.87;100.00;100955.50;4992285;28;20061;-79
2021/12/24 03:34:19;;;;;;;60.10;26.77;;;;;;;1.93;100.00;100970.00;4993241;28;20050;-79
2021/12/24 03:36:49;;;;;;;60.63;25.88;;;;;;;1.98;100.00;100967.50;4991375;28;20413;-80
2021/12/24 03:39:23;;;;;;;51.00;26.95;;;;;;;1.98;100.00;100962.09;4985772;28;20050;-80
2021/12/24 03:41:51;;;;;;;56.40;24.77;;;;;;;2.06;100.00;100959.19;4990970;28;20042;-80
2021/12/24 03:44:20;;;;;;;57.10;26.38;;;;;;;2.06;100.00;100953.78;4990875;28;20054;-80
2021/12/24 03:49:31;;;;;;;59.72;26.73;;;;;;;2.13;100.00;100959.16;4991263;28;20437;-80
2021/12/24 03:54:57;;;;;;;55.28;25.75;;;;;;;2.16;100.00;100937.13;4972978;28;20070;-80
2021/12/24 03:57:38;;;;;;;53.17;26.08;;;;;;;2.13;100.00;100945.63;4990875;28;20054;-80
2021/12/24 04:00:32;;;;;;;58.45;25.88;;;;;;;2.18;100.00;100951.22;4989190;28;20054;-80
2021/12/24 04:03:29;;;;;;;68.30;29.05;;;;;;;2.14;100.00;100937.34;4952397;28;20047;-81
2021/12/24 04:06:26;;;;;;;58.63;25.98;;;;;;;2.10;100.00;100955.00;4992035;28;20077;-80
2021/12/24 04:09:22;;;;;;;57.55;25.20;;;;;;;2.04;100.00;100945.06;4985356;28;20050;-80
2021/12/24 04:12:07;;;;;;;56.38;25.17;;;;;;;1.98;100.00;100945.91;4990407;28;20058;-80
2021/12/24 04:14:35;;;;;;;65.20;27.52;;;;;;;1.96;100.00;100948.00;4990866;28;20058;-80
2021/12/24 04:17:04;;;;;;;63.25;26.88;;;;;;;2.05;100.00;100972.91;4991856;28;20069;-80
2021/12/24 04:24:50;;;;;;;53.08;25.38;;;;;;;2.05;100.00;100956.69;4991738;28;20058;-80
2021/12/24 04:25:09;;;;;;;56.47;27.00;;;;;;;1.96;100.00;100943.41;4990679;28;20050;-80
2021/12/24 04:27:37;;;;;;;55.95;25.38;;;;;;;1.97;100.00;100941.56;4986843;28;20054;-81
2021/12/24 04:30:14;;;;;;;58.58;28.10;;;;;;;1.92;100.00;100942.22;4990878;28;20047;-80
2021/12/24 04:51:41;;;;;;;57.10;26.92;;;;;;;2.08;100.00;100938.19;4995041;28;20497;-80
2021/12/24 05:05:10;;;;;;;60.25;28.95;;;;;;;2.01;100.00;100924.72;4989919;28;20054;-80
2021/12/24 05:10:18;;;;;;;60.08;30.05;;;;;;;1.98;100.00;100919.75;4991991;28;20050;-80
2021/12/24 05:12:46;;;;;;;56.85;28.80;;;;;;;2.04;100.00;100906.44;4993838;28;20042;-81
2021/12/24 05:15:14;;;;;;;57.22;27.45;;;;;;;2.26;100.00;100888.06;4994238;28;20061;-80
2021/12/24 05:23:50;;;;;;;59.72;27.75;;;;;;;2.29;100.00;100876.78;5006427;28;20061;-80
2021/12/24 05:26:19;;;;;;;59.30;27.25;;;;;;;2.19;100.00;100887.25;4994237;28;20050;-80
2021/12/24 05:28:47;;;;;;;57.33;26.35;;;;;;;2.17;100.00;100887.47;4993748;28;20046;-81
2021/12/24 05:31:15;;;;;;;53.58;27.17;;;;;;;2.26;100.00;100893.44;4991500;28;20061;-80
2021/12/24 05:33:43;;;;;;;52.40;26.90;;;;;;;2.19;100.00;100879.16;4993638;28;20050;-80
2021/12/24 05:36:11;;;;;;;60.35;25.73;;;;;;;2.38;100.00;100869.25;5010125;28;20050;-80
2021/12/24 05:38:39;;;;;;;57.75;25.92;;;;;;;2.44;100.00;100867.56;4994160;28;20070;-81
2021/12/24 05:41:07;;;;;;;63.15;28.65;;;;;;;2.33;100.00;100860.97;4992427;28;20042;-80
2021/12/24 05:43:36;;;;;;;71.53;30.20;;;;;;;2.32;100.00;100867.44;4987840;28;20391;-81
2021/12/24 05:46:04;;;;;;;55.05;26.98;;;;;;;2.39;100.00;100869.06;4993742;28;20049;-80
2021/12/24 05:48:40;;;;;;;61.92;26.85;;;;;;;2.39;100.00;100869.06;4992699;28;20054;-81
2021/12/24 05:51:10;;;;;;;55.38;26.15;;;;;;;2.34;100.00;100859.97;4991438;28;20046;-80
2021/12/24 05:54:08;;;;;;;58.78;26.02;;;;;;;2.13;100.00;100862.78;4985359;28;20054;-80
2021/12/24 05:56:37;;;;;;;59.15;25.60;;;;;;;2.12;100.00;100850.31;5000652;28;20046;-80
2021/12/24 05:59:13;;;;;;;58.03;26.50;;;;;;;2.25;100.00;100851.28;4989618;28;20057;-81
2021/12/24 06:01:41;;;;;;;56.60;28.02;;;;;;;2.18;100.00;100858.59;5010776;28;20049;-80
2021/12/24 06:04:10;;;;;;;59.70;27.50;;;;;;;2.22;100.00;100854.41;5013272;28;20531;-81
2021/12/24 06:06:39;;;;;;;56.88;28.48;;;;;;;2.22;100.00;100863.34;4996213;28;20745;-80
2021/12/24 06:09:07;;;;;;;54.75;27.80;;;;;;;2.19;100.00;100852.97;5002678;28;20401;-80
2021/12/24 06:11:35;;;;;;;53.45;26.17;;;;;;;2.22;100.00;100857.13;5008295;28;20787;-79
2021/12/24 06:14:10;;;;;;;48.20;26.08;;;;;;;2.21;100.00;100864.41;5013492;28;20057;-78
2021/12/24 06:17:01;;;;;;;58.30;27.98;;;;;;;2.25;100.00;100864.78;5003413;28;20062;-80
2021/12/24 06:19:33;;;;;;;58.50;28.33;;;;;;;2.33;100.00;100878.03;5013757;28;20046;-81
2021/12/24 06:22:01;;;;;;;57.97;28.42;;;;;;;2.37;100.00;100873.84;5013615;28;20073;-82
2021/12/24 06:24:29;;;;;;;58.63;27.55;;;;;;;2.40;100.00;100869.91;5010454;28;20587;-81
2021/12/24 06:26:57;;;;;;;52.28;27.05;;;;;;;2.38;100.00;100864.69;4993287;28;20046;-85
2021/12/24 06:29:29;;;;;;;53.15;25.48;;;;;;;2.36;100.00;100865.97;4998287;28;20057;-84
2021/12/24 06:31:57;;;;;;;57.22;27.13;;;;;;;2.36;100.00;100866.81;4980113;28;20051;-85
2021/12/24 06:34:30;;;;;;;56.70;28.38;;;;;;;2.27;100.00;100868.09;4958599;28;20066;-85
2021/12/24 06:36:59;;;;;;;57.05;27.92;;;;;;;2.34;100.00;100862.66;4994179;28;20054;-85
2021/12/24 06:39:28;;;;;;;52.85;26.92;;;;;;;2.46;100.00;100870.88;4993877;28;20058;-85
2021/12/24 06:41:56;;;;;;;57.30;27.00;;;;;;;2.51;100.00;100874.59;4993493;28;20045;-85
2021/12/24 06:44:25;;;;;;;58.53;27.20;;;;;;;2.65;100.00;100879.91;4994828;28;20050;-84
2021/12/24 06:46:53;;;;;;;54.83;28.08;;;;;;;2.77;100.00;100882.69;4991628;28;20065;-83
2021/12/24 06:49:21;;;;;;;54.88;26.80;;;;;;;2.61;100.00;100898.44;4993484;28;20046;-84
2021/12/24 06:51:49;;;;;;;57.72;26.33;;;;;;;2.53;100.00;100886.00;4992880;28;20489;-83
2021/12/24 06:54:17;;;;;;;50.40;26.27;;;;;;;2.44;100.00;100887.28;4994491;28;20038;-84
2021/12/24 06:56:49;;;;;;;55.13;27.33;;;;;;;2.57;100.00;100894.50;4958949;28;20047;-84
2021/12/24 06:59:17;;;;;;;57.25;28.23;;;;;;;2.56;100.00;100887.44;5004823;28;20046;-82
2021/12/24 07:01:46;;;;;;;54.97;26.90;;;;;;;2.52;100.00;100891.63;4992563;28;20038;-83
2021/12/24 07:04:15;;;;;;;57.45;28.13;;;;;;;2.65;100.00;100890.72;4993853;28;20409;-82
2021/12/24 07:06:45;;;;;;;56.88;27.58;;;;;;;2.66;100.00;100874.28;4993217;28;20050;-82
2021/12/24 07:09:15;;;;;;;51.53;25.23;;;;;;;2.66;100.00;100897.75;4999281;28;20050;-83
2021/12/24 07:11:43;;;;;;;53.55;27.38;;;;;;;2.60;100.00;100894.06;4987560;28;20069;-83
2021/12/24 07:14:12;;;;;;;54.95;27.63;;;;;;;2.54;100.00;100886.84;4993144;28;20057;-83
2021/12/24 07:16:41;;;;;;;56.60;26.73;;;;;;;2.47;100.00;100886.88;4998483;28;20051;-84
2021/12/24 07:19:10;;;;;;;56.58;26.55;;;;;;;2.57;100.00;100899.06;4990394;28;20046;-83
2021/12/24 07:21:39;;;;;;;53.03;26.58;;;;;;;2.53;100.00;100914.88;4992721;28;20050;-83
2021/12/24 07:24:07;;;;;;;58.20;28.20;;;;;;;2.65;100.00;100909.63;4993075;28;20043;-83
2021/12/24 07:26:36;;;;;;;54.92;27.02;;;;;;;2.64;100.00;100907.97;4991329;28;20049;-82
2021/12/24 07:29:04;;;;;;;53.25;25.48;;;;;;;2.61;100.00;100917.34;4989833;28;20042;-82
2021/12/24 07:31:32;;;;;;;55.45;27.63;;;;;;;2.53;100.00;100920.28;4992141;28;20046;-80
2021/12/24 07:34:00;;;;;;;62.10;27.08;;;;;;;2.67;100.00;100916.47;4990622;28;20505;-80
2021/12/24 07:36:28;;;;;;;63.85;28.50;;;;;;;2.60;100.00;100923.78;4991592;28;20046;-80
2021/12/24 07:38:56;;;;;;;55.95;26.80;;;;;;;2.71;100.00;100899.78;4991532;28;20489;-80
2021/12/24 07:41:25;;;;;;;59.58;26.83;;;;;;;2.85;100.00;100893.25;4987011;28;20054;-82
2021/12/24 07:43:53;;;;;;;54.83;25.48;;;;;;;2.77;100.00;100880.00;4987967;28;20908;-83
2021/12/24 07:46:24;;;;;;;55.60;25.75;;;;;;;2.95;100.00;100865.72;4992633;28;20045;-83
2021/12/24 07:49:01;;;;;;;51.30;26.65;;;;;;;2.74;100.00;100862.34;4993334;28;20045;-79
2021/12/24 07:54:32;;;;;;;53.00;26.52;;;;;;;2.76;100.00;100857.56;4948123;28;20050;-81
2021/12/24 07:57:00;;;;;;;55.83;26.40;;;;;;;2.78;100.00;100876.25;5004663;28;20515;-83
2021/12/24 07:59:38;;;;;;;57.50;26.90;;;;;;;3.02;100.00;100852.13;4986494;28;20043;-82
2021/12/24 08:02:10;;;;;;;58.20;26.55;;;;;;;3.11;98.84;100845.38;4994382;28;20073;-81
2021/12/24 08:04:39;;;;;;;47.95;24.45;;;;;;;3.19;98.41;100858.63;4996163;28;20049;-84
2021/12/24 08:07:08;;;;;;;50.17;25.20;;;;;;;3.27;98.01;100865.63;4993625;28;20046;-82
2021/12/24 08:09:37;;;;;;;56.45;26.80;;;;;;;3.18;97.59;100862.38;4992023;28;20061;-82
2021/12/24 08:12:07;;;;;;;50.38;27.17;;;;;;;3.01;98.53;100861.28;4981230;28;20057;-78
2021/12/24 08:14:35;;;;;;;54.20;24.65;;;;;;;2.94;99.42;100862.19;5011178;28;20050;-77
2021/12/24 08:17:05;;;;;;;54.10;28.08;;;;;;;3.03;98.20;100853.81;4994391;28;20054;-76
2021/12/24 08:19:33;;;;;;;53.88;25.85;;;;;;;2.82;99.65;100843.16;5012562;28;20046;-78
2021/12/24 08:22:01;;;;;;;56.70;27.75;;;;;;;2.91;99.98;100845.56;5003156;28;20052;-76
2021/12/24 08:24:30;;;;;;;57.72;28.38;;;;;;;3.02;100.00;100841.31;5011516;28;20050;-80
2021/12/24 08:26:58;;;;;;;53.63;28.77;;;;;;;2.97;100.00;100833.06;5011111;28;20560;-79
2021/12/24 08:29:26;;;;;;;58.85;29.00;;;;;;;3.12;99.53;100830.81;5012088;28;20046;-78
2021/12/24 08:31:55;;;;;;;48.78;26.77;;;;;;;3.31;98.27;100826.25;5012211;28;20050;-78
2021/12/24 08:34:25;;;;;;;54.05;27.70;;;;;;;3.58;96.01;100817.00;4993984;28;20047;-78
2021/12/24 08:36:54;;;;;;;51.75;26.00;;;;;;;3.28;98.26;100828.59;4990097;28;20405;-79
2021/12/24 08:39:22;;;;;;;56.58;27.45;;;;;;;3.30;98.34;100834.59;4988705;28;20489;-78
2021/12/24 08:41:54;;;;;;;49.53;24.92;;;;;;;3.38;96.88;100820.78;4990745;28;20053;-78
2021/12/24 08:44:31;;;;;;;;;;;;;;;3.56;94.67;100816.41;4984243;28;20061;-78
2021/12/24 08:47:04;;;;;;;52.75;25.85;;;;;;;3.47;92.66;100829.41;4990862;28;19928;-79
2021/12/24 08:49:32;;;;;;;50.72;24.85;;;;;;;3.35;90.96;100826.63;4991699;28;20428;-79
2021/12/24 08:52:04;;;;;;;46.70;25.67;;;;;;;3.25;90.20;100835.25;4991935;28;20379;-78
2021/12/24 08:54:32;;;;;;;49.35;24.70;;;;;;;3.32;89.90;100819.78;4990760;28;20465;-79
2021/12/24 08:57:00;;;;;;;49.10;25.75;;;;;;;3.45;91.00;100817.97;4989681;28;20050;-78
2021/12/24 08:59:28;;;;;;;45.00;24.15;;;;;;;3.41;88.47;100809.50;4989928;28;20043;-78
2021/12/24 09:01:58;;;;;;;47.63;25.70;;;;;;;3.27;89.29;100795.28;4987272;28;20034;-78
2021/12/24 09:04:27;;;;;;;46.63;25.35;;;;;;;3.52;88.95;100804.38;4991553;28;20046;-79
2021/12/24 09:06:54;;;;;;;50.97;25.25;;;;;;;3.48;88.22;100796.69;4991373;28;20050;-79
2021/12/24 09:09:22;;;;;;;45.80;23.88;;;;;;;3.32;88.82;100792.72;4991284;28;20046;-79
2021/12/24 09:11:50;;;;;;;46.35;25.17;;;;;;;3.39;89.31;100789.97;4990322;28;20480;-79
2021/12/24 09:14:19;;;;;;;47.50;25.70;;;;;;;3.54;88.57;100788.72;4991372;28;20039;-79
2021/12/24 09:16:48;;;;;;;49.08;25.63;;;;;;;3.53;88.23;100804.16;4993005;28;20509;-79
2021/12/24 09:19:22;;;;;;;52.30;27.38;;;;;;;3.54;88.17;100794.97;4990255;28;20038;-78
2021/12/24 09:21:50;;;;;;;48.85;25.42;;;;;;;3.42;88.69;100796.78;4991106;28;20046;-78
2021/12/24 09:24:20;;;;;;;50.63;26.35;;;;;;;3.39;89.64;100818.88;4991016;28;20050;-79
2021/12/24 09:26:48;;;;;;;49.35;25.85;;;;;;;3.39;90.38;100811.59;4992746;28;20046;-79
2021/12/24 09:29:16;;;;;;;51.50;27.13;;;;;;;3.27;90.19;100814.22;4993502;28;20042;-79
2021/12/24 09:31:44;;;;;;;53.88;26.23;;;;;;;3.26;91.14;100795.50;4992962;28;20053;-79
2021/12/24 09:34:13;;;;;;;51.72;26.50;;;;;;;3.17;91.16;100801.22;4995362;28;20050;-78
2021/12/24 09:36:41;;;;;;;49.83;26.40;;;;;;;3.34;91.43;100798.72;4995048;28;20507;-80
2021/12/24 09:39:10;;;;;;;49.63;27.08;;;;;;;3.48;90.74;100791.28;4995083;28;20050;-79
2021/12/24 09:41:38;;;;;;;49.50;26.50;;;;;;;3.62;89.18;100796.56;4994983;28;20059;-80
2021/12/24 09:44:08;;;;;;;48.65;26.42;;;;;;;3.72;89.26;100796.81;4993392;28;20058;-78
2021/12/24 09:46:42;;;;;;;52.15;27.33;;;;;;;3.52;89.56;100801.66;4995741;28;20053;-76
2021/12/24 09:49:15;;;;;;;46.58;27.17;;;;;;;3.66;89.60;100807.75;4996149;28;20080;-78
2021/12/24 09:51:48;;;;;;;50.38;28.85;;;;;;;3.80;89.24;100803.00;4992491;28;20050;-78
2021/12/24 09:54:18;;;;;;;47.05;25.75;;;;;;;3.89;87.61;100813.25;4991770;28;20045;-78
2021/12/24 09:56:48;;;;;;;55.13;26.83;;;;;;;3.93;88.03;100816.34;4994940;28;20046;-78
2021/12/24 09:59:19;;;;;;;50.30;26.15;;;;;;;4.15;86.33;100815.81;4994609;28;20054;-77
2021/12/24 10:01:55;;;;;;;47.67;26.52;;;;;;;4.24;87.17;100805.47;4995046;28;20474;-78
2021/12/24 10:04:32;;;;;;;54.05;27.15;;;;;;;4.26;86.96;100812.31;4994175;28;20065;-78
2021/12/24 10:07:06;;;;;;;48.00;26.10;;;;;;;4.32;87.52;100813.28;4995009;28;20057;-78
2021/12/24 10:09:41;;;;;;;55.85;29.02;;;;;;;4.30;87.71;100812.66;5009694;28;20517;-80
2021/12/24 10:12:31;;;;;;;53.22;28.63;;;;;;;4.37;88.11;100815.28;4993703;28;20504;-79
2021/12/24 10:15:01;;;;;;;50.55;27.17;;;;;;;4.56;88.10;100821.44;4992853;28;20054;-79
2021/12/24 10:17:33;;;;;;;50.28;26.58;;;;;;;4.41;88.00;100819.19;4994071;28;20061;-77
2021/12/24 10:20:12;;;;;;;51.33;27.42;;;;;;;4.50;87.45;100804.22;4993812;28;20047;-78
2021/12/24 10:22:46;;;;;;;53.03;27.30;;;;;;;4.31;88.35;100792.66;4990313;28;20050;-78
2021/12/24 10:25:15;;;;;;;51.75;28.50;;;;;;;4.33;87.93;100789.69;4990812;28;20054;-78
2021/12/24 10:27:44;;;;;;;54.40;28.95;;;;;;;4.14;89.34;100797.91;4992565;28;20045;-78
2021/12/24 10:30:23;;;;;;;52.42;26.85;;;;;;;4.10;90.06;100794.03;4993738;28;20042;-78
2021/12/24 10:32:55;;;;;;;52.92;28.15;;;;;;;4.11;89.78;100782.13;4993058;28;20047;-79
2021/12/24 10:35:29;;;;;;;49.50;28.10;;;;;;;4.06;89.85;100776.56;4993367;28;20056;-78
2021/12/24 10:38:10;;;;;;;53.42;28.98;;;;;;;4.20;91.47;100767.19;4988544;28;20054;-78
2021/12/24 10:41:04;;;;;;;53.90;30.00;;;;;;;4.44;91.34;100775.34;4993632;28;20061;-77
2021/12/24 10:43:36;;;;;;;57.42;28.88;;;;;;;4.59;88.65;100787.63;4988540;28;20042;-79
2021/12/24 10:46:15;;;;;;;53.30;27.08;;;;;;;4.51;89.37;100767.94;4993487;28;20045;-78
2021/12/24 10:49:03;;;;;;;52.90;28.10;;;;;;;4.41;89.74;100770.41;4993446;28;20038;-78
2021/12/24 10:51:54;;;;;;;58.17;28.92;;;;;;;4.49;89.19;100745.66;4991297;28;20038;-78
2021/12/24 10:54:27;;;;;;;53.65;27.02;;;;;;;4.61;88.70;100752.97;4984154;28;20489;-79
2021/12/24 10:57:16;;;;;;;54.88;29.45;;;;;;;4.69;87.52;100758.03;5004123;28;20050;-77
2021/12/24 10:59:49;;;;;;;50.05;28.20;;;;;;;4.74;89.72;100760.88;5013200;28;20046;-78
2021/12/24 11:02:18;;;;;;;56.03;29.70;;;;;;;4.74;89.02;100762.75;5014698;28;20050;-78
2021/12/24 11:04:46;;;;;;;55.65;29.27;;;;;;;4.68;89.69;100764.50;5000216;28;20050;-77
2021/12/24 11:07:30;;;;;;;57.10;29.13;;;;;;;4.60;90.80;100760.31;5008971;28;20053;-78
2021/12/24 11:10:22;;;;;;;54.58;28.95;;;;;;;4.57;92.08;100750.75;5003260;28;20053;-78
2021/12/24 11:12:55;;;;;;;60.75;31.23;;;;;;;4.35;91.27;100728.78;5012792;28;20038;-77
2021/12/24 11:15:31;;;;;;;62.80;31.10;;;;;;;4.28;93.54;100745.19;5003008;28;20046;-78
2021/12/24 11:18:12;;;;;;;60.70;28.80;;;;;;;4.26;93.98;100747.28;5012806;28;20058;-78
2021/12/24 11:20:40;;;;;;;55.67;28.13;;;;;;;4.20;94.85;100742.81;5013237;28;20057;-79
2021/12/24 11:23:14;;;;;;;57.67;28.83;;;;;;;4.40;94.64;100739.75;5012806;28;20076;-78
2021/12/24 11:25:45;;;;;;;54.63;29.88;;;;;;;4.33;94.32;100722.78;5013461;28;20464;-78
2021/12/24 11:28:14;;;;;;;56.22;29.85;;;;;;;4.37;94.16;100726.69;5000939;28;20416;-78
2021/12/24 11:30:45;;;;;;;57.90;31.15;;;;;;;4.12;94.89;100722.31;5006203;28;20068;-77
2021/12/24 11:33:16;;;;;;;62.60;32.15;;;;;;;4.03;97.55;100715.56;5001859;28;20049;-78
2021/12/24 11:35:47;;;;;;;61.35;32.58;;;;;;;4.18;96.36;100717.84;5010113;28;20038;-79
2021/12/24 11:38:18;;;;;;;65.30;32.53;;;;;;;4.20;96.31;100717.59;5011759;28;20488;-78
2021/12/24 11:40:49;;;;;;;66.15;31.17;;;;;;;4.11;96.92;100717.94;5005102;28;20041;-79
2021/12/24 11:43:22;;;;;;;62.78;33.35;;;;;;;4.10;98.49;100701.94;5001138;28;20473;-79
2021/12/24 11:45:50;;;;;;;62.03;31.45;;;;;;;4.04;98.89;100695.56;5005176;28;20057;-79
2021/12/24 11:48:20;;;;;;;64.38;32.72;;;;;;;4.00;98.50;100689.78;4982045;28;20045;-79
2021/12/24 11:50:48;;;;;;;60.95;31.92;;;;;;;3.93;99.37;100682.81;4982681;28;20042;-79
2021/12/24 11:53:17;;;;;;;60.15;31.92;;;;;;;3.79;100.00;100682.19;5005974;28;20648;-79
2021/12/24 11:55:48;;;;;;;61.55;32.35;;;;;;;3.94;99.92;100673.63;5000488;28;20039;-79
2021/12/24 11:58:18;;;;;;;63.00;33.25;;;;;;;3.73;99.24;100660.41;4987982;28;20056;-78
2021/12/24 12:00:50;;;;;;;59.92;31.25;;;;;;;3.70;100.00;100663.59;4991640;28;20047;-79
2021/12/24 12:03:49;;;;;;;62.55;32.20;;;;;;;3.74;100.00;100670.19;4986796;28;20043;-79
2021/12/24 12:06:24;;;;;;;62.08;32.58;;;;;;;4.00;100.00;100673.53;4983892;28;20503;-78
2021/12/24 12:08:56;;;;;;;63.05;31.33;;;;;;;3.88;100.00;100680.81;4980823;28;20051;-78
2021/12/24 12:11:27;;;;;;;60.67;30.40;;;;;;;3.97;100.00;100684.81;4982893;28;20433;-79
2021/12/24 12:13:56;;;;;;;63.83;31.08;;;;;;;3.90;100.00;100675.97;4976116;28;20038;-78
2021/12/24 12:16:39;;;;;;;60.72;31.50;;;;;;;3.97;100.00;100690.22;4978653;28;20045;-78
2021/12/24 12:19:22;;;;;;;61.13;31.50;;;;;;;4.05;100.00;100682.84;4978986;28;20050;-79
2021/12/24 12:24:57;;;;;;;60.28;30.75;;;;;;;3.99;100.00;100661.06;4983226;28;20421;-78
2021/12/24 12:27:43;;;;;;;57.33;32.00;;;;;;;3.88;100.00;100659.16;5012368;28;20444;-79
2021/12/24 12:30:21;;;;;;;65.25;32.28;;;;;;;3.87;100.00;100646.69;5002902;28;20051;-79
2021/12/24 12:33:14;;;;;;;65.40;33.22;;;;;;;3.92;100.00;100654.94;4985053;28;20042;-78
2021/12/24 12:35:45;;;;;;;97.47;44.45;;;;;;;3.76;100.00;100646.44;4987166;28;20049;-79
2021/12/24 12:38:23;;;;;;;88.90;38.05;;;;;;;4.11;100.00;100647.50;4986459;28;20065;-78
2021/12/24 12:40:52;;;;;;;73.55;37.83;;;;;;;4.00;100.00;100651.03;4992131;28;20047;-79
2021/12/24 12:43:21;;;;;;;65.82;31.52;;;;;;;3.91;100.00;100645.13;4978874;28;20054;-78
2021/12/24 12:45:53;;;;;;;64.70;32.30;;;;;;;3.87;100.00;100644.78;4970909;28;20042;-80
2021/12/24 12:48:26;;;;;;;58.53;31.58;;;;;;;3.72;100.00;100629.00;4979358;28;20054;-78
2021/12/24 12:50:57;;;;;;;60.00;30.73;;;;;;;3.72;100.00;100649.84;4991418;28;20043;-78
2021/12/24 12:53:30;;;;;;;63.95;32.38;;;;;;;3.73;100.00;100640.66;4990802;28;20042;-77
2021/12/24 12:56:20;;;;;;;62.95;33.47;;;;;;;3.84;100.00;100657.97;4990216;28;20046;-78
2021/12/24 12:59:07;;;;;;;65.10;32.83;;;;;;;3.81;100.00;100653.84;4989374;28;20409;-78
2021/12/24 13:01:50;;;;;;;65.50;33.28;;;;;;;3.92;100.00;100640.56;4992206;28;20062;-79
2021/12/24 13:04:19;;;;;;;71.35;36.60;;;;;;;3.81;100.00;100636.78;4994709;28;20043;-79
2021/12/24 13:06:51;;;;;;;62.92;32.70;;;;;;;3.59;100.00;100624.63;4994548;28;20065;-80
2021/12/24 13:09:28;;;;;;;68.70;33.95;;;;;;;3.73;100.00;100614.38;4993381;28;20046;-82
2021/12/24 13:11:56;;;;;;;84.95;38.92;;;;;;;3.58;100.00;100622.16;4995126;28;20043;-81
2021/12/24 13:14:26;;;;;;;74.75;38.80;;;;;;;3.56;100.00;100613.44;4993434;28;20049;-79
2021/12/24 13:22:31;;;;;;;67.53;33.90;;;;;;;3.65;100.00;100605.81;4993883;28;20049;-79
2021/12/24 13:25:06;;;;;;;65.47;33.08;;;;;;;3.84;100.00;100607.38;4995676;28;20057;-79
2021/12/24 13:27:39;;;;;;;61.97;33.08;;;;;;;3.86;100.00;100612.56;4992488;28;20422;-81
2021/12/24 13:30:24;;;;;;;65.20;34.42;;;;;;;3.71;100.00;100602.97;5002020;28;20046;-80
2021/12/24 13:32:59;;;;;;;65.18;33.42;;;;;;;3.60;100.00;100601.91;4991202;28;20047;-80
2021/12/24 13:35:44;;;;;;;56.45;32.22;;;;;;;3.51;100.00;100600.59;4993193;28;20050;-80